Arpin, Wisconsin
Current Conditions -  °F | °C
As of 6:54 PM on Friday 28 Nov 2014 (Local Time) from KMFI Reporting Station
Overcast Overcast  
Wind Chill: 11°   Ceiling: 8500
Heat Index: 21°   Visibility: 10mi
Dew Point: 16°   Wind: 9mph
Humidity: 81%   Direction: 120°ESE
Pressure: 29.86"   Gusts: NA
Location:  44.54°N, 90.04°W
Report Text: KMFI 290054Z AUTO 12008KT 10SM FEW020 OVC085 M06/M09 A2986 RMK AO2 SNE06 SLP137 P0000 T10611089
Loading
Personal Weather Stations






























Interactive Weather Map New forecast layout! Learn more

10-Day Weather Forecast

Advertisements
Track Severe Weather on mobile